createdAt,value
2022-08-27T00:00:36.277Z,79.20
2022-08-27T00:01:39.601Z,79.20
2022-08-27T00:02:43.930Z,79.30
2022-08-27T00:03:48.636Z,79.30
2022-08-27T00:04:55.539Z,79.40
2022-08-27T00:05:58.567Z,79.40
2022-08-27T00:07:03.213Z,79.40
2022-08-27T00:08:08.137Z,79.50
2022-08-27T00:09:12.084Z,79.40
2022-08-27T00:10:30.454Z,79.40
2022-08-27T00:11:32.936Z,79.40
2022-08-27T00:12:39.071Z,79.50
2022-08-27T00:13:43.022Z,79.50
2022-08-27T00:14:46.912Z,79.50
2022-08-27T00:15:49.917Z,79.60
2022-08-27T00:16:53.447Z,79.70
2022-08-27T00:17:56.677Z,79.70
2022-08-27T00:19:05.686Z,79.80
2022-08-27T00:20:09.776Z,79.80
2022-08-27T00:21:15.658Z,79.80
2022-08-27T00:22:18.486Z,79.80
2022-08-27T00:23:24.367Z,79.90
2022-08-27T00:24:29.007Z,79.90
2022-08-27T00:25:33.083Z,80.10
2022-08-27T00:26:40.160Z,80.10
2022-08-27T00:27:46.175Z,80.00
2022-08-27T00:28:50.609Z,80.00
2022-08-27T00:29:56.664Z,80.00
2022-08-27T00:31:01.483Z,79.90
2022-08-27T00:32:06.128Z,80.00
2022-08-27T00:33:08.748Z,79.90
2022-08-27T00:34:14.891Z,80.00
2022-08-27T00:35:18.864Z,80.00
2022-08-27T00:36:22.932Z,80.00
2022-08-27T00:37:26.387Z,80.00
2022-08-27T00:38:30.296Z,80.00
2022-08-27T00:39:33.413Z,80.00
2022-08-27T00:40:37.570Z,80.10
2022-08-27T00:41:42.114Z,80.10
2022-08-27T00:42:46.067Z,80.10
2022-08-27T00:43:54.581Z,80.00
2022-08-27T00:44:59.667Z,80.10
2022-08-27T00:46:07.986Z,80.20
2022-08-27T00:47:17.132Z,80.20
2022-08-27T00:48:21.304Z,80.20
2022-08-27T00:49:29.004Z,80.30
2022-08-27T00:50:37.013Z,80.30
2022-08-27T00:51:41.746Z,80.30
2022-08-27T00:52:48.959Z,80.30
2022-08-27T00:53:55.360Z,80.30
2022-08-27T00:55:03.563Z,80.40
2022-08-27T00:56:15.805Z,80.40
2022-08-27T00:57:21.085Z,80.40
2022-08-27T00:58:30.674Z,80.40
2022-08-27T00:59:34.668Z,80.50
2022-08-27T01:00:39.001Z,80.60
2022-08-27T01:02:01.868Z,80.60
2022-08-27T01:03:05.890Z,80.70
2022-08-27T01:04:08.581Z,80.80
2022-08-27T01:05:16.885Z,80.80
2022-08-27T01:06:21.294Z,80.90
2022-08-27T01:07:28.667Z,81.00
2022-08-27T01:08:38.028Z,81.10
2022-08-27T01:09:44.402Z,81.20
2022-08-27T01:10:48.176Z,81.30
2022-08-27T01:11:56.789Z,81.40
2022-08-27T01:12:59.461Z,81.40
2022-08-27T01:14:05.502Z,81.40
2022-08-27T01:15:20.058Z,81.40
2022-08-27T01:16:30.921Z,81.40
2022-08-27T01:17:34.938Z,81.50
2022-08-27T01:18:39.395Z,81.60
2022-08-27T01:19:52.673Z,81.50
2022-08-27T01:21:00.305Z,81.50
2022-08-27T01:22:20.348Z,81.60
2022-08-27T01:23:35.208Z,81.60
2022-08-27T01:24:44.858Z,81.60
2022-08-27T01:25:48.825Z,81.60
2022-08-27T01:26:56.453Z,81.70
2022-08-27T01:28:02.974Z,81.80
2022-08-27T01:29:06.731Z,81.80
2022-08-27T01:30:12.789Z,82.00
2022-08-27T01:31:16.694Z,82.00
2022-08-27T01:32:22.988Z,82.00
2022-08-27T01:33:28.754Z,82.00
2022-08-27T01:34:31.189Z,82.20
2022-08-27T01:35:35.702Z,82.30
2022-08-27T01:36:42.556Z,82.30
2022-08-27T01:37:52.410Z,82.30
2022-08-27T01:38:55.981Z,82.20
2022-08-27T01:40:03.666Z,82.30
2022-08-27T01:41:07.518Z,82.30
2022-08-27T01:42:19.040Z,82.30
2022-08-27T01:43:21.306Z,82.30
2022-08-27T01:44:25.591Z,82.40
2022-08-27T01:45:33.694Z,82.40
2022-08-27T01:46:36.707Z,82.40
2022-08-27T01:47:40.876Z,82.50
2022-08-27T01:48:43.868Z,82.50
2022-08-27T01:49:48.145Z,82.50
2022-08-27T01:50:51.324Z,82.60
2022-08-27T01:51:54.952Z,82.60
2022-08-27T01:52:57.829Z,82.60
2022-08-27T01:54:01.273Z,82.70
2022-08-27T01:55:07.603Z,82.70
2022-08-27T01:56:13.275Z,82.70
2022-08-27T01:57:16.503Z,82.70
2022-08-27T01:58:23.253Z,82.70
2022-08-27T01:59:26.016Z,82.70
2022-08-27T02:00:48.913Z,82.70
2022-08-27T02:01:57.699Z,82.70
2022-08-27T02:03:01.263Z,82.70
2022-08-27T02:04:04.414Z,82.70
2022-08-27T02:05:11.379Z,82.70
2022-08-27T02:06:14.828Z,82.70
2022-08-27T02:07:19.081Z,82.70
2022-08-27T02:08:22.509Z,82.70
2022-08-27T02:09:26.690Z,82.70
2022-08-27T02:10:35.769Z,82.70
2022-08-27T02:11:43.771Z,82.70
2022-08-27T02:12:47.945Z,82.70
2022-08-27T02:13:51.374Z,82.80
2022-08-27T02:14:56.228Z,82.80
2022-08-27T02:16:00.043Z,82.90
2022-08-27T02:17:02.586Z,82.90
2022-08-27T02:18:07.751Z,83.00
2022-08-27T02:19:10.406Z,82.90
2022-08-27T02:20:19.145Z,83.00
2022-08-27T02:21:21.686Z,83.00
2022-08-27T02:22:25.573Z,83.00
2022-08-27T02:23:28.145Z,83.00
2022-08-27T02:24:34.505Z,83.00
2022-08-27T02:25:38.388Z,83.10
2022-08-27T02:26:41.912Z,83.10
2022-08-27T02:27:44.942Z,83.10
2022-08-27T02:28:48.431Z,83.00
2022-08-27T02:29:51.725Z,83.00
2022-08-27T02:30:55.418Z,82.90
2022-08-27T02:31:57.864Z,82.90
2022-08-27T02:33:02.620Z,82.90
2022-08-27T02:34:05.487Z,82.90
2022-08-27T02:35:10.150Z,82.90
2022-08-27T02:36:13.729Z,82.90
2022-08-27T02:37:17.405Z,82.90
2022-08-27T02:38:21.218Z,82.90
2022-08-27T02:39:23.735Z,82.90
2022-08-27T02:40:27.845Z,82.90
2022-08-27T02:41:31.561Z,82.90
2022-08-27T02:42:37.558Z,82.90
2022-08-27T02:43:40.351Z,82.90
2022-08-27T02:44:45.546Z,83.00
2022-08-27T02:45:48.492Z,83.00
2022-08-27T02:46:52.111Z,83.00
2022-08-27T02:47:58.836Z,83.00
2022-08-27T02:49:04.755Z,83.00
2022-08-27T02:50:09.047Z,83.00
2022-08-27T02:51:12.707Z,83.00
2022-08-27T02:52:15.105Z,83.00
2022-08-27T02:53:19.589Z,83.00
2022-08-27T02:54:22.691Z,83.00
2022-08-27T02:55:26.570Z,83.00
2022-08-27T02:56:29.241Z,83.00
2022-08-27T02:57:36.390Z,83.10
2022-08-27T02:59:45.542Z,83.20
2022-08-27T03:00:48.347Z,83.20
2022-08-27T03:01:54.246Z,83.40
2022-08-27T03:02:57.686Z,83.40
2022-08-27T03:04:02.420Z,83.50
2022-08-27T03:05:06.819Z,83.50
2022-08-27T03:06:11.505Z,83.50
2022-08-27T03:07:18.657Z,83.60
2022-08-27T03:08:24.699Z,83.60
2022-08-27T03:09:29.555Z,83.60
2022-08-27T03:10:33.231Z,83.60
2022-08-27T03:11:38.074Z,83.60
2022-08-27T03:12:44.217Z,83.60
2022-08-27T03:13:46.736Z,83.60
2022-08-27T03:14:50.143Z,83.60
2022-08-27T03:15:53.797Z,83.70
2022-08-27T03:18:19.625Z,83.60
2022-08-27T03:19:24.022Z,83.60
2022-08-27T03:20:28.080Z,83.70
2022-08-27T03:21:31.616Z,83.60
2022-08-27T03:22:36.495Z,83.60
2022-08-27T03:23:39.992Z,83.70
2022-08-27T03:24:44.592Z,83.70
2022-08-27T03:25:52.527Z,83.80
2022-08-27T03:26:56.718Z,83.80
2022-08-27T03:28:01.181Z,83.80
2022-08-27T03:29:04.812Z,83.90
2022-08-27T03:30:12.175Z,84.00
2022-08-27T03:31:21.664Z,84.10
2022-08-27T03:32:26.325Z,84.10
2022-08-27T03:33:32.200Z,84.10
2022-08-27T03:34:34.760Z,84.20
2022-08-27T03:35:38.330Z,84.20
2022-08-27T03:37:49.613Z,84.30
2022-08-27T03:38:53.736Z,84.30
2022-08-27T03:39:56.175Z,84.40
2022-08-27T03:40:59.926Z,84.40
2022-08-27T03:42:02.473Z,84.40
2022-08-27T03:43:07.395Z,84.40
2022-08-27T03:44:10.122Z,84.40
2022-08-27T03:45:20.410Z,84.40
2022-08-27T03:46:22.992Z,84.50
2022-08-27T03:47:26.420Z,84.60
2022-08-27T03:48:31.721Z,84.60
2022-08-27T03:49:35.222Z,84.60
2022-08-27T03:50:39.481Z,84.60
2022-08-27T03:51:43.362Z,84.60
2022-08-27T03:52:46.552Z,84.70
2022-08-27T03:53:49.945Z,84.70
2022-08-27T03:54:52.817Z,84.70
2022-08-27T03:55:56.184Z,84.70
2022-08-27T03:56:58.592Z,84.80
2022-08-27T03:58:02.443Z,84.80
2022-08-27T03:59:06.760Z,84.80
2022-08-27T04:00:14.187Z,84.70
2022-08-27T04:01:19.403Z,84.80
2022-08-27T04:02:22.895Z,84.80
2022-08-27T04:03:25.986Z,84.80
2022-08-27T04:04:32.441Z,84.80
2022-08-27T04:05:37.213Z,84.80
2022-08-27T04:06:41.461Z,84.90
2022-08-27T04:07:46.022Z,84.80
2022-08-27T04:08:49.424Z,84.80
2022-08-27T04:09:52.130Z,84.80
2022-08-27T04:10:56.482Z,84.90
2022-08-27T04:11:59.147Z,84.80
2022-08-27T04:13:05.995Z,84.90
2022-08-27T04:14:24.703Z,84.90
2022-08-27T04:15:32.449Z,84.90
2022-08-27T04:16:36.267Z,84.90
2022-08-27T04:17:40.102Z,85.00
2022-08-27T04:18:42.830Z,85.00
2022-08-27T04:19:46.242Z,85.10
2022-08-27T04:20:52.387Z,85.00
2022-08-27T04:21:59.316Z,85.10
2022-08-27T04:23:04.480Z,85.10
2022-08-27T04:24:09.837Z,85.10
2022-08-27T04:25:12.730Z,85.10
2022-08-27T04:26:16.970Z,85.30
2022-08-27T04:27:20.711Z,85.30
2022-08-27T04:28:24.371Z,85.30
2022-08-27T04:29:28.422Z,85.20
2022-08-27T04:30:32.981Z,85.20
2022-08-27T04:31:35.579Z,85.20
2022-08-27T04:32:39.556Z,85.20
2022-08-27T04:33:51.311Z,85.20
2022-08-27T04:34:55.826Z,85.20
2022-08-27T04:35:58.909Z,85.30
2022-08-27T04:37:06.297Z,85.30
2022-08-27T04:38:09.078Z,85.30
2022-08-27T04:39:13.204Z,85.40
2022-08-27T04:40:15.757Z,85.50
2022-08-27T04:41:23.085Z,85.60
2022-08-27T04:42:26.598Z,85.60
2022-08-27T04:43:33.393Z,85.70
2022-08-27T04:44:39.100Z,85.80
2022-08-27T04:45:46.166Z,85.80
2022-08-27T04:46:51.162Z,85.80
2022-08-27T04:47:54.212Z,85.80
2022-08-27T04:49:02.077Z,85.90
2022-08-27T04:50:06.984Z,85.90
2022-08-27T04:51:14.640Z,85.90
2022-08-27T04:52:21.137Z,86.00
2022-08-27T04:53:23.901Z,86.00
2022-08-27T04:54:32.430Z,86.00
2022-08-27T04:55:42.227Z,86.10
2022-08-27T04:56:46.226Z,86.10
2022-08-27T04:57:48.649Z,86.00
2022-08-27T04:58:53.112Z,86.00
2022-08-27T04:59:58.014Z,86.00
2022-08-27T05:01:01.915Z,85.90
2022-08-27T05:02:08.960Z,85.90
2022-08-27T05:03:12.629Z,85.80
2022-08-27T05:04:18.981Z,85.90
2022-08-27T05:05:23.674Z,85.80
2022-08-27T05:06:27.560Z,85.80
2022-08-27T05:07:31.712Z,85.80
2022-08-27T05:08:34.954Z,85.80
2022-08-27T05:09:39.109Z,85.80
2022-08-27T05:10:43.541Z,85.90
2022-08-27T05:11:47.812Z,85.90
2022-08-27T05:12:50.498Z,85.80
2022-08-27T05:13:53.880Z,85.80
2022-08-27T05:14:58.803Z,85.80
2022-08-27T05:16:04.755Z,85.80
2022-08-27T05:17:13.314Z,85.70
2022-08-27T05:18:16.313Z,85.70
2022-08-27T05:19:19.884Z,85.60
2022-08-27T05:20:25.521Z,85.60
2022-08-27T05:21:32.054Z,85.60
2022-08-27T05:22:36.628Z,85.60
2022-08-27T05:23:39.990Z,85.50
2022-08-27T05:24:46.043Z,85.50
2022-08-27T05:25:54.159Z,85.60
2022-08-27T05:26:57.548Z,85.60
2022-08-27T05:28:00.215Z,85.60
2022-08-27T05:29:05.666Z,85.70
2022-08-27T05:30:13.344Z,85.70
2022-08-27T05:31:19.627Z,85.70
2022-08-27T05:32:23.296Z,85.70
2022-08-27T05:33:26.423Z,85.70
2022-08-27T05:34:31.900Z,85.70
2022-08-27T05:35:40.638Z,85.60
2022-08-27T05:36:47.947Z,85.60
2022-08-27T05:37:51.757Z,85.60
2022-08-27T05:38:56.510Z,85.70
2022-08-27T05:39:59.869Z,85.70
2022-08-27T05:41:07.562Z,85.70
2022-08-27T05:42:11.274Z,85.80
2022-08-27T05:43:15.863Z,85.80
2022-08-27T05:44:40.108Z,85.90
2022-08-27T05:45:45.964Z,85.90
2022-08-27T05:46:48.522Z,85.90
2022-08-27T05:47:51.882Z,86.00
2022-08-27T05:48:58.421Z,86.00
2022-08-27T05:50:03.759Z,85.90
2022-08-27T05:51:13.523Z,85.90
2022-08-27T05:52:19.929Z,85.90
2022-08-27T05:53:23.485Z,85.90
2022-08-27T05:54:27.401Z,85.80
2022-08-27T05:55:29.851Z,85.70
2022-08-27T05:56:37.650Z,85.70
2022-08-27T05:57:41.859Z,85.70
2022-08-27T05:59:03.162Z,85.70
2022-08-27T06:00:30.902Z,85.60
2022-08-27T06:01:38.624Z,85.60
2022-08-27T06:02:41.803Z,85.50
2022-08-27T06:03:47.621Z,85.50
2022-08-27T06:04:51.683Z,85.50
2022-08-27T06:06:01.808Z,85.50
2022-08-27T06:07:06.607Z,85.50
2022-08-27T06:08:09.479Z,85.40
2022-08-27T06:09:18.297Z,85.50
2022-08-27T06:10:21.102Z,85.30
2022-08-27T06:11:24.696Z,85.20
2022-08-27T06:12:28.213Z,85.20
2022-08-27T06:13:36.421Z,85.10
2022-08-27T06:14:41.094Z,85.00
2022-08-27T06:15:44.756Z,84.90
2022-08-27T06:16:48.932Z,84.80
2022-08-27T06:17:53.144Z,84.80
2022-08-27T06:18:57.410Z,84.80
2022-08-27T06:20:00.955Z,84.70
2022-08-27T06:21:04.358Z,84.70
2022-08-27T06:22:09.943Z,84.70
2022-08-27T06:24:18.118Z,84.60
2022-08-27T06:25:20.851Z,84.60
2022-08-27T06:26:26.953Z,84.50
2022-08-27T06:27:32.935Z,84.50
2022-08-27T06:28:36.956Z,84.40
2022-08-27T06:29:41.080Z,84.30
2022-08-27T06:30:44.849Z,84.20
2022-08-27T06:31:50.536Z,84.20
2022-08-27T06:32:54.629Z,84.20
2022-08-27T06:34:02.989Z,84.20
2022-08-27T06:35:11.992Z,84.10
2022-08-27T06:36:17.858Z,84.00
2022-08-27T06:37:21.468Z,84.00
2022-08-27T06:38:24.788Z,83.90
2022-08-27T06:39:28.449Z,83.70
2022-08-27T06:40:40.750Z,83.60
2022-08-27T06:41:44.749Z,83.50
2022-08-27T06:42:47.573Z,83.40
2022-08-27T06:43:54.698Z,83.30
2022-08-27T06:44:57.765Z,83.20
2022-08-27T06:46:06.063Z,83.20
2022-08-27T06:47:16.565Z,83.10
2022-08-27T06:48:24.558Z,83.00
2022-08-27T06:49:28.908Z,83.00
2022-08-27T06:50:38.987Z,82.90
2022-08-27T06:51:46.995Z,82.80
2022-08-27T06:52:49.425Z,82.80
2022-08-27T06:53:53.820Z,82.70
2022-08-27T06:54:56.432Z,82.70
2022-08-27T06:56:02.678Z,82.60
2022-08-27T06:57:05.563Z,82.60
2022-08-27T06:58:09.416Z,82.50
2022-08-27T06:59:15.721Z,82.40
2022-08-27T07:00:19.706Z,82.40
2022-08-27T07:01:30.175Z,82.70
2022-08-27T07:02:35.353Z,82.80
2022-08-27T07:03:40.126Z,82.80
2022-08-27T07:04:43.907Z,82.60
2022-08-27T07:05:46.727Z,82.30
2022-08-27T07:06:51.177Z,81.70
2022-08-27T07:07:53.858Z,81.00
2022-08-27T07:09:00.155Z,80.40
2022-08-27T07:10:04.254Z,79.80
2022-08-27T07:11:10.250Z,79.10
2022-08-27T07:12:18.351Z,78.50
2022-08-27T07:13:21.487Z,77.70
2022-08-27T07:16:41.115Z,75.40
2022-08-27T07:17:47.344Z,74.70
2022-08-27T07:18:53.259Z,74.10
2022-08-27T07:19:56.931Z,73.50
2022-08-27T07:20:59.455Z,72.90
2022-08-27T07:22:06.455Z,72.20
2022-08-27T07:23:11.252Z,71.10
2022-08-27T07:24:17.208Z,70.40
2022-08-27T07:26:24.172Z,68.00
2022-08-27T07:27:28.137Z,66.70
2022-08-27T07:28:30.699Z,65.80
2022-08-27T07:29:35.626Z,64.20
2022-08-27T07:30:38.542Z,62.70
2022-08-27T07:31:44.428Z,63.60
2022-08-27T07:32:48.594Z,62.80
2022-08-27T07:33:53.207Z,62.50
2022-08-27T07:34:56.007Z,62.20
2022-08-27T07:35:59.846Z,61.20
2022-08-27T07:37:02.369Z,60.10
2022-08-27T07:38:06.917Z,59.40
2022-08-27T07:39:14.005Z,58.90
2022-08-27T07:40:18.559Z,58.10
2022-08-27T07:41:21.343Z,58.00
2022-08-27T07:42:42.562Z,57.80
2022-08-27T07:44:06.239Z,56.30
2022-08-27T07:45:13.213Z,56.50
2022-08-27T07:46:16.010Z,55.90
2022-08-27T07:47:22.605Z,55.00
2022-08-27T07:48:30.931Z,53.10
2022-08-27T07:49:35.850Z,53.30
2022-08-27T07:50:38.286Z,53.60
2022-08-27T07:52:47.647Z,53.10
2022-08-27T07:53:54.952Z,51.80
2022-08-27T07:54:58.382Z,51.70
2022-08-27T07:56:05.676Z,51.30
2022-08-27T07:57:08.712Z,51.00
2022-08-27T07:59:26.277Z,50.00
2022-08-27T08:00:30.521Z,49.50
2022-08-27T08:01:35.293Z,49.20
2022-08-27T08:05:54.681Z,49.30
2022-08-27T08:08:04.317Z,51.00
2022-08-27T08:09:08.527Z,52.10
2022-08-27T08:11:19.762Z,53.10
2022-08-27T08:12:26.524Z,53.60
2022-08-27T08:13:29.708Z,53.50
2022-08-27T08:15:40.094Z,54.50
2022-08-27T08:20:18.413Z,55.30
2022-08-27T08:22:28.973Z,57.10
2022-08-27T08:23:39.163Z,58.30
2022-08-27T08:25:46.481Z,58.40
2022-08-27T08:26:50.739Z,59.50
2022-08-27T08:27:57.204Z,60.10
2022-08-27T08:29:07.092Z,60.40
2022-08-27T08:35:40.412Z,60.80
2022-08-27T08:37:57.795Z,63.10
2022-08-27T08:39:00.457Z,63.40
2022-08-27T08:47:35.521Z,65.80
2022-08-27T08:48:45.287Z,66.40
2022-08-27T08:50:04.657Z,67.20
2022-08-27T08:51:18.660Z,67.20
2022-08-27T08:53:48.993Z,67.70
2022-08-27T08:54:57.604Z,68.50
2022-08-27T08:56:09.047Z,69.20
2022-08-27T08:57:24.248Z,69.40
2022-08-27T08:58:40.643Z,69.60
2022-08-27T08:59:57.505Z,69.80
2022-08-27T09:01:12.314Z,70.00
2022-08-27T09:02:16.385Z,70.30
2022-08-27T09:03:20.172Z,70.30
2022-08-27T09:04:30.715Z,70.50
2022-08-27T09:05:37.707Z,70.60
2022-08-27T09:06:46.485Z,70.80
2022-08-27T09:08:21.265Z,70.90
2022-08-27T09:09:35.328Z,71.00
2022-08-27T09:10:45.232Z,71.20
2022-08-27T09:11:59.326Z,71.40
2022-08-27T09:13:05.808Z,71.40
2022-08-27T09:14:25.203Z,71.40
2022-08-27T09:15:31.853Z,71.50
2022-08-27T09:16:35.557Z,71.40
2022-08-27T09:17:38.302Z,71.50
2022-08-27T09:18:45.449Z,71.60
2022-08-27T09:19:48.097Z,71.70
2022-08-27T09:21:10.052Z,71.70
2022-08-27T09:22:24.270Z,71.70
2022-08-27T09:23:37.493Z,71.70
2022-08-27T09:24:52.679Z,71.70
2022-08-27T09:25:58.226Z,71.60
2022-08-27T09:27:05.666Z,71.50
2022-08-27T09:28:32.438Z,71.30
2022-08-27T09:29:39.587Z,71.20
2022-08-27T09:30:44.228Z,71.00
2022-08-27T09:31:58.597Z,70.90
2022-08-27T09:33:05.367Z,70.80
2022-08-27T09:34:11.905Z,70.70
2022-08-27T09:35:18.415Z,70.70
2022-08-27T09:36:23.974Z,70.60
2022-08-27T09:37:34.213Z,70.60
2022-08-27T09:38:39.790Z,70.50
2022-08-27T09:39:51.563Z,70.40
2022-08-27T09:40:56.740Z,70.40
2022-08-27T09:42:00.726Z,70.20
2022-08-27T09:43:09.693Z,70.10
2022-08-27T09:44:19.810Z,70.00
2022-08-27T09:45:27.667Z,69.90
2022-08-27T09:46:33.798Z,69.90
2022-08-27T09:47:45.946Z,69.70
2022-08-27T09:48:48.833Z,69.70
2022-08-27T09:50:10.517Z,69.70
2022-08-27T09:51:21.711Z,69.70
2022-08-27T09:52:38.047Z,69.80
2022-08-27T09:53:50.329Z,69.80
2022-08-27T09:54:56.768Z,69.60
2022-08-27T09:56:05.451Z,69.60
2022-08-27T09:57:12.155Z,69.60
2022-08-27T09:58:21.825Z,69.50
2022-08-27T09:59:29.256Z,69.50
2022-08-27T10:00:39.316Z,69.30
2022-08-27T10:01:55.087Z,69.30
2022-08-27T10:03:05.153Z,69.30
2022-08-27T10:04:12.377Z,69.20
2022-08-27T10:05:31.627Z,69.20
2022-08-27T10:06:37.469Z,69.20
2022-08-27T10:07:52.700Z,69.20
2022-08-27T10:09:07.119Z,69.10
2022-08-27T10:10:19.101Z,68.90
2022-08-27T10:11:29.615Z,68.80
2022-08-27T10:12:44.875Z,68.70
2022-08-27T10:13:58.050Z,68.50
2022-08-27T10:15:04.405Z,68.40
2022-08-27T10:16:37.788Z,68.40
2022-08-27T10:17:54.829Z,68.30
2022-08-27T10:19:13.281Z,68.20
2022-08-27T10:20:30.358Z,68.20
2022-08-27T10:21:44.750Z,68.10
2022-08-27T10:23:06.612Z,68.00
2022-08-27T10:24:23.010Z,68.00
2022-08-27T10:25:36.924Z,67.90
2022-08-27T10:26:50.051Z,67.60
2022-08-27T10:28:09.082Z,67.50
2022-08-27T10:29:24.164Z,67.50
2022-08-27T10:30:46.492Z,67.40
2022-08-27T10:32:06.218Z,67.40
2022-08-27T10:33:23.381Z,67.40
2022-08-27T10:34:45.281Z,67.30
2022-08-27T10:36:02.353Z,67.30
2022-08-27T10:37:25.867Z,67.30
2022-08-27T10:38:49.778Z,67.40
2022-08-27T10:40:11.167Z,67.30
2022-08-27T10:41:23.891Z,67.30
2022-08-27T10:42:34.605Z,67.20
2022-08-27T10:44:18.068Z,67.00
2022-08-27T10:45:41.769Z,66.60
2022-08-27T10:47:24.598Z,66.40
2022-08-27T10:48:37.586Z,66.00
2022-08-27T10:49:52.743Z,65.70
2022-08-27T10:51:08.420Z,65.10
2022-08-27T10:52:22.801Z,65.00
2022-08-27T10:53:35.783Z,65.00
2022-08-27T10:54:49.102Z,64.90
2022-08-27T10:56:07.615Z,64.80
2022-08-27T10:57:40.037Z,64.70
2022-08-27T10:59:03.977Z,64.90
2022-08-27T11:00:13.203Z,65.10
2022-08-27T11:01:29.086Z,65.10
2022-08-27T11:02:36.553Z,65.00
2022-08-27T11:03:48.506Z,65.10
2022-08-27T11:04:57.940Z,65.00
2022-08-27T11:06:16.564Z,65.10
2022-08-27T11:07:28.056Z,65.00
2022-08-27T11:08:42.092Z,64.80
2022-08-27T11:09:56.838Z,64.60
2022-08-27T11:11:35.001Z,64.50
2022-08-27T11:12:38.362Z,64.60
2022-08-27T11:13:52.397Z,64.70
2022-08-27T11:15:02.157Z,64.90
2022-08-27T11:16:14.986Z,64.70
2022-08-27T11:17:27.001Z,64.60
2022-08-27T11:18:49.041Z,64.10
2022-08-27T11:19:59.662Z,64.10
2022-08-27T11:21:10.628Z,64.00
2022-08-27T11:22:26.680Z,63.90
2022-08-27T11:23:39.263Z,63.80
2022-08-27T11:24:50.233Z,64.00
2022-08-27T11:26:02.155Z,64.00
2022-08-27T11:27:09.200Z,63.60
2022-08-27T11:28:14.632Z,63.20
2022-08-27T11:30:59.042Z,62.90
2022-08-27T11:33:17.713Z,62.50
2022-08-27T11:34:34.375Z,62.50
2022-08-27T11:35:57.222Z,61.90
2022-08-27T11:37:22.194Z,61.80
2022-08-27T11:38:47.206Z,61.80
2022-08-27T11:40:29.303Z,61.80
2022-08-27T11:42:02.130Z,61.30
2022-08-27T11:43:09.297Z,61.30
2022-08-27T11:44:16.657Z,61.10
2022-08-27T11:45:28.990Z,60.90
2022-08-27T11:46:46.063Z,61.30
2022-08-27T11:48:00.526Z,60.70
2022-08-27T11:49:04.950Z,60.30
2022-08-27T11:50:22.541Z,60.00
2022-08-27T11:51:33.626Z,60.20
2022-08-27T11:52:43.820Z,60.00
2022-08-27T11:54:00.126Z,59.90
2022-08-27T11:55:27.604Z,60.00
2022-08-27T11:56:45.259Z,60.00
2022-08-27T11:57:50.387Z,59.30
2022-08-27T11:58:53.947Z,59.10
2022-08-27T11:59:57.221Z,58.70
2022-08-27T12:01:04.941Z,58.70
2022-08-27T12:02:26.197Z,59.20
2022-08-27T12:03:32.556Z,58.90
2022-08-27T12:04:42.985Z,58.30
2022-08-27T12:06:18.034Z,58.20
2022-08-27T12:07:35.913Z,58.30
2022-08-27T12:08:38.927Z,58.20
2022-08-27T12:10:02.002Z,57.90
2022-08-27T12:11:22.233Z,58.20
2022-08-27T12:12:37.447Z,58.60
2022-08-27T12:13:51.802Z,58.40
2022-08-27T12:15:05.155Z,58.90
2022-08-27T12:16:27.898Z,58.40
2022-08-27T12:17:40.749Z,58.90
2022-08-27T12:19:01.235Z,58.40
2022-08-27T12:20:19.973Z,58.20
2022-08-27T12:21:38.992Z,57.90
2022-08-27T12:23:26.545Z,58.10
2022-08-27T12:24:45.544Z,57.80
2022-08-27T12:26:02.925Z,57.30
2022-08-27T12:27:32.005Z,57.90
2022-08-27T12:28:35.624Z,57.80
2022-08-27T12:29:49.013Z,57.00
2022-08-27T12:30:59.092Z,56.60
2022-08-27T12:32:20.656Z,56.40
2022-08-27T12:33:32.117Z,56.50
2022-08-27T12:34:47.880Z,55.10
2022-08-27T12:35:55.769Z,55.10
2022-08-27T12:36:58.923Z,54.50
2022-08-27T12:38:16.276Z,54.60
2022-08-27T12:39:24.225Z,54.10
2022-08-27T12:40:39.844Z,53.70
2022-08-27T12:41:47.942Z,53.50
2022-08-27T12:43:05.347Z,53.00
2022-08-27T12:44:13.755Z,53.00
2022-08-27T12:45:27.298Z,53.00
2022-08-27T12:46:30.684Z,52.20
2022-08-27T12:47:50.645Z,51.40
2022-08-27T12:49:36.852Z,50.90
2022-08-27T12:50:30.618Z,51.10
2022-08-27T12:51:38.004Z,51.90
2022-08-27T12:53:10.138Z,51.40
2022-08-27T12:54:38.095Z,51.50
2022-08-27T12:56:01.235Z,52.20
2022-08-27T12:57:13.063Z,52.60
2022-08-27T12:58:28.386Z,52.80
2022-08-27T13:00:12.596Z,52.80
2022-08-27T13:01:38.253Z,53.00
2022-08-27T13:03:25.938Z,53.20
2022-08-27T13:04:33.883Z,53.60
2022-08-27T13:05:45.012Z,54.00
2022-08-27T13:06:49.587Z,54.50
2022-08-27T13:07:55.441Z,54.70
2022-08-27T13:09:02.692Z,54.40
2022-08-27T13:10:16.802Z,54.50
2022-08-27T13:11:24.494Z,55.00
2022-08-27T13:12:27.940Z,54.80
2022-08-27T13:13:33.047Z,54.70
2022-08-27T13:14:41.851Z,54.90
2022-08-27T13:15:48.851Z,54.80
2022-08-27T13:16:55.966Z,55.40
2022-08-27T13:18:02.523Z,55.40
2022-08-27T13:19:09.547Z,55.50
2022-08-27T13:20:20.209Z,55.80
2022-08-27T13:21:30.009Z,56.20
2022-08-27T13:22:39.706Z,55.90
2022-08-27T13:23:47.079Z,56.30
2022-08-27T13:24:53.936Z,55.90
2022-08-27T13:26:05.481Z,56.10
2022-08-27T13:27:09.596Z,55.80
2022-08-27T13:28:17.103Z,55.80
2022-08-27T13:29:22.874Z,56.10
2022-08-27T13:30:35.494Z,55.60
2022-08-27T13:31:43.478Z,56.20
2022-08-27T13:32:48.445Z,56.10
2022-08-27T13:33:58.715Z,55.60
2022-08-27T13:35:03.861Z,55.80
2022-08-27T13:36:09.732Z,56.00
2022-08-27T13:37:25.342Z,56.20
2022-08-27T13:38:32.366Z,56.20
2022-08-27T13:39:37.826Z,56.20
2022-08-27T13:40:59.062Z,56.00
2022-08-27T13:43:15.753Z,55.40
2022-08-27T13:44:27.772Z,55.10
2022-08-27T13:45:31.630Z,55.20
2022-08-27T13:46:48.736Z,55.20
2022-08-27T13:50:05.556Z,55.30
2022-08-27T13:53:52.981Z,55.60
2022-08-27T13:55:06.239Z,56.30
2022-08-27T13:56:09.624Z,56.70
2022-08-27T13:57:25.915Z,56.70
2022-08-27T13:58:34.060Z,56.90
2022-08-27T13:59:43.500Z,57.00
2022-08-27T14:00:48.710Z,56.80
2022-08-27T14:01:58.582Z,57.10
2022-08-27T14:03:02.292Z,57.30
2022-08-27T14:04:15.509Z,57.20
2022-08-27T14:05:34.015Z,57.20
2022-08-27T14:06:46.980Z,57.40
2022-08-27T14:07:55.260Z,57.30
2022-08-27T14:09:00.212Z,57.30
2022-08-27T14:10:09.216Z,57.60
2022-08-27T14:11:15.604Z,57.60
2022-08-27T14:12:34.728Z,57.80
2022-08-27T14:14:55.368Z,57.90
2022-08-27T14:16:00.094Z,58.10
2022-08-27T14:17:09.932Z,58.30
2022-08-27T14:18:37.096Z,58.60
2022-08-27T14:19:52.462Z,58.70
2022-08-27T14:21:00.747Z,58.80
2022-08-27T14:22:04.911Z,58.50
2022-08-27T14:23:13.253Z,58.70
2022-08-27T14:24:18.039Z,58.90
2022-08-27T14:25:23.609Z,58.70
2022-08-27T14:26:32.843Z,58.80
2022-08-27T14:27:37.563Z,59.00
2022-08-27T14:28:42.820Z,59.20
2022-08-27T14:29:45.454Z,59.30
2022-08-27T14:30:53.688Z,59.40
2022-08-27T14:31:59.201Z,59.50
2022-08-27T14:33:05.104Z,59.60
2022-08-27T14:34:09.744Z,59.90
2022-08-27T14:35:13.872Z,59.90
2022-08-27T14:36:32.318Z,60.00
2022-08-27T14:37:39.722Z,60.00
2022-08-27T14:39:53.315Z,60.00
2022-08-27T14:42:11.190Z,60.30
2022-08-27T14:43:16.689Z,60.40
2022-08-27T14:44:22.119Z,60.40
2022-08-27T14:45:25.424Z,60.40
2022-08-27T14:46:42.790Z,60.40
2022-08-27T14:47:48.470Z,60.70
2022-08-27T14:48:53.241Z,60.70
2022-08-27T14:49:56.859Z,60.80
2022-08-27T14:51:04.122Z,60.90
2022-08-27T14:52:15.063Z,61.00
2022-08-27T14:53:20.058Z,61.00
2022-08-27T14:55:37.666Z,61.00
2022-08-27T14:56:44.821Z,61.10
2022-08-27T14:57:47.973Z,61.20
2022-08-27T14:58:59.262Z,61.30
2022-08-27T15:00:02.437Z,61.40
2022-08-27T15:01:08.126Z,61.40
2022-08-27T15:02:19.001Z,61.50
2022-08-27T15:03:25.441Z,61.30
2022-08-27T15:04:32.189Z,61.30
2022-08-27T15:05:35.289Z,61.30
2022-08-27T15:06:39.826Z,61.30
2022-08-27T15:07:47.020Z,61.40
2022-08-27T15:08:52.711Z,61.60
2022-08-27T15:10:00.656Z,61.70
2022-08-27T15:11:04.001Z,61.80
2022-08-27T15:12:21.717Z,61.70
2022-08-27T15:13:35.273Z,61.70
2022-08-27T15:14:44.896Z,61.80
2022-08-27T15:15:48.607Z,61.80
2022-08-27T15:16:57.563Z,61.90
2022-08-27T15:18:02.031Z,62.00
2022-08-27T15:19:08.290Z,62.10
2022-08-27T15:20:19.881Z,62.00
2022-08-27T15:22:34.709Z,62.30
2022-08-27T15:23:46.919Z,62.20
2022-08-27T15:24:56.535Z,62.40
2022-08-27T15:26:03.905Z,62.50
2022-08-27T15:27:09.211Z,62.70
2022-08-27T15:28:18.688Z,62.80
2022-08-27T15:29:22.402Z,62.80
2022-08-27T15:30:31.418Z,62.90
2022-08-27T15:31:35.462Z,63.00